Airfield :
LOGIN :

Register | Disclaimer

   EN    FR    IT 

 










Legend :    VFR   Marginal VFR   IFR   Intensive IFR   Very Intensive IFR
Visi :
Ceiling :
>= 8 km
>= 3000ft
5 to 8 km
1000 to 3000 ft
1500m to 5 km
500 to 1000 ft
800 to 1500m
200 to 500 ft
< 800m
< 200 ft
Symbols :   Thunderstorms  Fog  Heavy snow  Heavy precipitations  Wind > 20 kt
SIGMETs :     Misc.  Thunderstorms  Icing  Turbulence  Mountain Waves  Volcanic Ashes






- Airport Elevation : 27 ft
- IATA code : PMI


LEPA - Palma de Mallorca

CURRENT METAR :
  • 071800Z 08003KT CAVOK 20/17 Q1018 NOSIG

EXPIRED METARs :
  • 071730Z 06003KT 020V100 CAVOK 21/17 Q1018 NOSIG
  • 071700Z 06007KT 9000 SCT032 21/17 Q1019 NOSIG
  • 071630Z 06008KT 9000 SCT032 22/17 Q1018 NOSIG
  • 071600Z 04006KT 350V060 9000 SCT022TCU SCT034 22/17 Q1018 NOSIG
  • 071530Z 07009KT 9000 SCT022TCU SCT034 20/17 Q1019 NOSIG

TAF TAF LEPA
Valid from the 07 at 18:00 until the 08 at 18:00 UTC


071700Z 0718/0818 06005KT 9999 SCT025 TX26/0813Z TN16/0806Z
PROB30
TEMPO 0718/0721 4000 TS SHRA FEW020CB
BECMG 0808/0810 06015KT
PROB40
TEMPO 0812/0818 06015G25KT



MET'MAP, your aeronautical weather chart ! - Copyright ORBIFLY December 2007 - Disclaimer

ORBIFLY MET'MAP TEAM :

Programming & Development : Alexandra Zaïnal
Original concept : Baudouin d'Aumeries
Technical & hardware support : Manuel Goepfert
Assistance : Marc-Olivier Méhu




SOURCES & CREDITS :

   NOAA